CheckWX is a tool to help pilots better visualize weather data.  It is not intended as a substitute for an official pre-flight weather briefing.

00:06:54 UTC

KRHI TAF
Rhinelander-Oneida County Airport
Rhinelander, Wisconsin, USA
KRHI 202336Z 2100/2124 25008KT P6SM SKC FM210400 24008KT P6SM SKC WS012/27040KT FM211500 23013G21KT P6SM SKC WS020/26040KT FM211800 24013G24KT P6SM SKC

Feb-21@
00:00 UTC

Feb-21 @ 00:00 UTC

Feb-21@
04:00 UTC

Feb-21 @ 04:00 UTC

KRHI 202336Z 2100/2124 25008KT P6SM SKC
Wind
  • 250° at 8 KTS
Cloud Levels
  • Clear skies

Feb-21@
04:00 UTC

Feb-21 @ 04:00 UTC

Feb-21@
15:00 UTC

Feb-21 @ 15:00 UTC

FM210400 24008KT P6SM SKC WS012/27040KT

From

From Standard forecast or significant change

Wind
  • 240° at 8 KTS
Cloud Levels
  • Clear skies

Feb-21@
15:00 UTC

Feb-21 @ 15:00 UTC

Feb-21@
18:00 UTC

Feb-21 @ 18:00 UTC

FM211500 23013G21KT P6SM SKC WS020/26040KT

From

From Standard forecast or significant change

Wind
  • 230° at 13 KTS
  • {Gusting to 21 KTS
Cloud Levels
  • Clear skies

Feb-21@
18:00 UTC

Feb-21 @ 18:00 UTC

Feb-22@
00:00 UTC

Feb-22 @ 00:00 UTC

FM211800 24013G24KT P6SM SKC

From

From Standard forecast or significant change

Wind
  • 240° at 13 KTS
  • {Gusting to 24 KTS
Cloud Levels
  • Clear skies